Time;durP1;ratioP1;P1;durP2;ratioP2;P2;SDS_P1;SDS_P2;PMS_P1;PMS_P2;Temp;Humidity;BMP_temperature;BMP_pressure;BME280_temperature;BME280_humidity;BME280_pressure;Samples;Min_cycle;Max_cycle;Signal;HPM_P1;HPM_P2
2023/07/09 00:00:52;;;;;;;21.42;13.75;;;23.90;99.90;;;;;;5132988;27;20011;-74
2023/07/09 00:03:19;;;;;;;19.25;13.15;;;23.80;99.90;;;;;;5113647;27;20075;-74
2023/07/09 00:05:47;;;;;;;18.30;13.15;;;23.80;99.90;;;;;;5112871;27;20322;-74
2023/07/09 00:08:33;;;;;;;19.50;13.43;;;23.80;99.90;;;;;;5132610;27;20019;-74
2023/07/09 00:10:59;;;;;;;19.15;13.50;;;23.80;99.90;;;;;;5132191;27;20092;-74
2023/07/09 00:13:26;;;;;;;22.85;14.07;;;23.70;99.90;;;;;;5132261;27;20467;-74
2023/07/09 00:15:57;;;;;;;21.92;14.35;;;23.70;99.90;;;;;;5132457;27;20027;-74
2023/07/09 00:18:23;;;;;;;22.27;13.70;;;23.70;99.90;;;;;;5132437;27;20023;-74
2023/07/09 00:20:49;;;;;;;20.50;14.50;;;23.70;99.90;;;;;;5132191;27;20015;-74
2023/07/09 00:23:16;;;;;;;20.95;14.23;;;23.60;99.90;;;;;;5132173;27;20019;-74
2023/07/09 00:25:44;;;;;;;20.77;13.90;;;23.60;99.90;;;;;;5132448;27;20439;-74
2023/07/09 00:28:17;;;;;;;22.55;14.18;;;23.60;99.90;;;;;;5131141;27;20472;-74
2023/07/09 00:30:45;;;;;;;19.20;13.93;;;23.50;99.90;;;;;;5113967;27;20494;-74
2023/07/09 00:33:14;;;;;;;22.52;14.50;;;23.60;99.90;;;;;;5132053;27;20015;-74
2023/07/09 00:35:41;;;;;;;20.65;14.10;;;23.50;99.90;;;;;;5132026;27;20035;-73
2023/07/09 00:38:14;;;;;;;19.35;14.18;;;23.50;99.90;;;;;;5131978;27;20451;-73
2023/07/09 00:40:59;;;;;;;20.40;14.43;;;23.50;99.90;;;;;;5132043;27;20023;-74
2023/07/09 00:43:27;;;;;;;19.90;14.50;;;23.40;99.90;;;;;;5132117;27;20015;-74
2023/07/09 00:46:14;;;;;;;18.73;13.75;;;23.40;99.90;;;;;;5132105;27;20621;-74
2023/07/09 00:48:41;;;;;;;18.77;13.70;;;23.40;99.90;;;;;;5126173;27;20196;-74
2023/07/09 00:51:16;;;;;;;21.70;14.25;;;23.30;99.90;;;;;;5131630;27;20054;-74
2023/07/09 00:53:49;;;;;;;19.10;13.73;;;23.30;99.90;;;;;;5131337;27;20145;-74
2023/07/09 00:56:23;;;;;;;20.17;14.63;;;23.30;99.90;;;;;;5131877;27;20031;-74
2023/07/09 00:58:49;;;;;;;21.50;14.47;;;23.20;99.90;;;;;;5131823;27;20075;-74
2023/07/09 01:01:18;;;;;;;21.58;14.15;;;23.20;99.90;;;;;;5131558;27;20047;-73
2023/07/09 01:03:53;;;;;;;20.80;14.20;;;23.20;99.90;;;;;;5128425;27;20016;-73
2023/07/09 01:06:44;;;;;;;21.70;14.82;;;23.20;99.90;;;;;;5124850;27;20138;-73
2023/07/09 01:09:10;;;;;;;22.95;14.23;;;23.20;99.90;;;;;;5125427;27;20369;-74
2023/07/09 01:11:38;;;;;;;21.92;14.32;;;23.20;99.90;;;;;;5128984;27;20015;-73
2023/07/09 01:14:07;;;;;;;19.88;14.65;;;23.20;99.90;;;;;;5131324;27;20007;-73
2023/07/09 01:16:38;;;;;;;19.75;14.27;;;23.20;99.90;;;;;;5131116;27;20099;-73
2023/07/09 01:19:05;;;;;;;19.10;14.43;;;23.20;99.90;;;;;;5128750;27;20378;-73
2023/07/09 01:21:32;;;;;;;20.10;14.98;;;23.10;99.90;;;;;;5113139;27;20034;-73
2023/07/09 01:23:58;;;;;;;23.17;14.57;;;23.10;99.90;;;;;;5128987;27;20367;-73
2023/07/09 01:26:26;;;;;;;19.70;14.48;;;23.10;99.90;;;;;;5125109;27;20024;-73
2023/07/09 01:28:53;;;;;;;21.27;15.10;;;23.10;99.90;;;;;;5129272;27;20019;-73
2023/07/09 01:31:20;;;;;;;22.95;15.00;;;23.10;99.90;;;;;;5131065;27;20034;-74
2023/07/09 01:33:46;;;;;;;19.13;14.70;;;23.10;99.90;;;;;;5130711;27;20011;-74
2023/07/09 01:36:15;;;;;;;20.90;14.80;;;23.10;99.90;;;;;;5130944;27;20076;-74
2023/07/09 01:38:42;;;;;;;23.42;14.93;;;23.10;99.90;;;;;;5130648;27;20098;-74
2023/07/09 01:41:08;;;;;;;22.10;15.52;;;23.00;99.90;;;;;;5131326;27;20050;-74
2023/07/09 01:43:34;;;;;;;23.77;16.15;;;23.00;99.90;;;;;;5130497;27;20510;-73
2023/07/09 01:46:00;;;;;;;20.42;14.73;;;23.00;99.90;;;;;;5130934;27;20026;-74
2023/07/09 01:48:26;;;;;;;23.05;15.30;;;23.00;99.90;;;;;;5131032;27;20020;-74
2023/07/09 01:50:53;;;;;;;23.58;16.33;;;23.00;99.90;;;;;;5130776;28;20043;-74
2023/07/09 01:53:23;;;;;;;22.10;15.93;;;23.00;99.90;;;;;;5102663;28;20031;-74
2023/07/09 01:55:54;;;;;;;21.70;15.57;;;23.00;99.90;;;;;;5121609;28;20023;-74
2023/07/09 01:58:24;;;;;;;23.50;15.45;;;22.90;99.90;;;;;;5106163;28;20085;-74
2023/07/09 02:00:50;;;;;;;24.70;15.00;;;22.90;99.90;;;;;;5131336;28;20387;-74
2023/07/09 02:03:17;;;;;;;24.05;15.98;;;22.90;99.90;;;;;;5131624;27;20042;-74
2023/07/09 02:05:43;;;;;;;24.40;16.02;;;22.90;99.90;;;;;;5135338;27;20015;-74
2023/07/09 02:08:09;;;;;;;21.50;15.63;;;22.90;99.90;;;;;;5134983;27;20030;-73
2023/07/09 02:10:34;;;;;;;25.35;15.90;;;22.90;99.90;;;;;;5133900;27;20037;-74
2023/07/09 02:13:00;;;;;;;24.92;16.13;;;22.90;99.90;;;;;;5135024;27;20087;-74
2023/07/09 02:15:26;;;;;;;20.05;14.40;;;22.90;99.90;;;;;;5134721;27;20023;-74
2023/07/09 02:17:52;;;;;;;22.98;15.75;;;22.80;99.90;;;;;;5134732;27;20038;-74
2023/07/09 02:20:19;;;;;;;22.40;15.52;;;22.80;99.90;;;;;;5135043;27;20019;-74
2023/07/09 02:22:45;;;;;;;23.27;15.45;;;22.80;99.90;;;;;;5135213;27;20027;-74
2023/07/09 02:25:11;;;;;;;22.85;15.23;;;22.80;99.90;;;;;;5115909;27;20035;-74
2023/07/09 02:27:38;;;;;;;23.52;16.00;;;22.80;99.90;;;;;;5134889;27;20102;-74
2023/07/09 02:30:05;;;;;;;24.50;16.15;;;22.80;99.90;;;;;;5134597;27;20019;-74
2023/07/09 02:32:31;;;;;;;20.17;16.17;;;22.80;99.90;;;;;;5134589;27;20408;-74
2023/07/09 02:34:58;;;;;;;22.40;16.17;;;22.80;99.90;;;;;;5134301;27;20540;-74
2023/07/09 02:37:25;;;;;;;25.90;15.88;;;22.80;99.90;;;;;;5135194;27;20046;-74
2023/07/09 02:39:52;;;;;;;23.05;15.75;;;22.70;99.90;;;;;;5134028;27;20103;-74
2023/07/09 02:42:19;;;;;;;24.00;15.85;;;22.70;99.90;;;;;;5134193;27;20035;-73
2023/07/09 02:44:45;;;;;;;21.00;14.48;;;22.70;99.90;;;;;;5133739;27;20465;-73
2023/07/09 02:47:12;;;;;;;20.73;15.00;;;22.70;99.90;;;;;;5115648;27;20034;-74
2023/07/09 02:49:39;;;;;;;22.05;15.32;;;22.70;99.90;;;;;;5133952;27;20031;-74
2023/07/09 02:52:05;;;;;;;22.23;15.32;;;22.70;99.90;;;;;;5133868;27;20303;-74
2023/07/09 02:54:31;;;;;;;24.77;15.23;;;22.60;99.90;;;;;;5115013;27;20019;-74
2023/07/09 02:56:57;;;;;;;20.85;14.93;;;22.60;99.90;;;;;;5123268;27;20046;-74
2023/07/09 02:59:22;;;;;;;22.23;15.40;;;22.60;99.90;;;;;;5121905;27;20047;-74
2023/07/09 03:01:49;;;;;;;24.23;15.38;;;22.50;99.90;;;;;;5110422;27;20505;-74
2023/07/09 03:04:14;;;;;;;22.20;15.00;;;22.50;99.90;;;;;;5123841;27;20084;-74
2023/07/09 03:06:40;;;;;;;22.00;14.45;;;22.50;99.90;;;;;;5131218;27;20272;-74
2023/07/09 03:09:06;;;;;;;19.92;14.30;;;22.50;99.90;;;;;;5122798;27;20350;-74
2023/07/09 03:11:34;;;;;;;28.00;15.60;;;22.50;99.90;;;;;;5133163;27;20023;-74
2023/07/09 03:14:01;;;;;;;19.83;15.27;;;22.40;99.90;;;;;;5133309;27;20027;-74
2023/07/09 03:16:28;;;;;;;21.85;15.82;;;22.40;99.90;;;;;;5132620;27;20019;-74
2023/07/09 03:18:54;;;;;;;24.15;15.50;;;22.40;99.90;;;;;;5121418;27;20015;-74
2023/07/09 03:21:24;;;;;;;23.00;15.73;;;22.40;99.90;;;;;;5133873;27;20025;-74
2023/07/09 03:23:50;;;;;;;21.45;14.80;;;22.40;99.90;;;;;;5134108;27;20355;-74
2023/07/09 03:26:16;;;;;;;22.55;15.45;;;22.40;99.90;;;;;;5133420;27;20047;-74
2023/07/09 03:28:42;;;;;;;24.70;15.73;;;22.40;99.90;;;;;;5134050;27;20018;-74
2023/07/09 03:31:08;;;;;;;23.90;16.10;;;22.40;99.90;;;;;;5114928;27;20027;-74
2023/07/09 03:33:33;;;;;;;25.45;16.88;;;22.30;99.90;;;;;;5133147;27;20024;-74
2023/07/09 03:35:59;;;;;;;23.00;15.38;;;22.30;99.90;;;;;;5133142;27;20058;-74
2023/07/09 03:38:25;;;;;;;24.58;16.15;;;22.30;99.90;;;;;;5111110;27;20028;-74
2023/07/09 03:40:54;;;;;;;21.55;15.77;;;22.30;99.90;;;;;;5132636;27;20019;-74
2023/07/09 03:43:20;;;;;;;25.55;15.90;;;22.30;99.90;;;;;;5132678;27;20472;-74
2023/07/09 03:45:47;;;;;;;24.70;15.77;;;22.30;99.90;;;;;;5132990;27;20027;-74
2023/07/09 03:48:14;;;;;;;22.25;16.08;;;22.30;99.90;;;;;;5114278;27;20045;-74
2023/07/09 03:50:41;;;;;;;28.00;18.10;;;22.30;99.90;;;;;;5132902;27;20448;-74
2023/07/09 03:53:06;;;;;;;25.83;18.65;;;22.20;99.90;;;;;;5133164;27;20392;-74
2023/07/09 03:55:32;;;;;;;24.83;17.98;;;22.30;99.90;;;;;;5128794;27;20023;-74
2023/07/09 03:57:58;;;;;;;26.98;18.65;;;22.30;99.90;;;;;;5132814;27;20031;-74
2023/07/09 04:00:26;;;;;;;26.65;17.88;;;22.30;99.90;;;;;;5132923;27;20094;-74
2023/07/09 04:02:52;;;;;;;26.75;18.88;;;22.30;99.90;;;;;;5132811;27;20064;-74
2023/07/09 04:05:18;;;;;;;26.25;18.65;;;22.30;99.90;;;;;;5127770;27;20746;-74
2023/07/09 04:07:44;;;;;;;27.75;18.98;;;22.40;99.90;;;;;;5124276;27;20022;-74
2023/07/09 04:10:10;;;;;;;27.80;19.65;;;22.40;99.90;;;;;;5132328;27;20106;-74
2023/07/09 04:12:36;;;;;;;32.72;19.35;;;22.30;99.90;;;;;;5132431;27;20095;-74
2023/07/09 04:15:03;;;;;;;30.58;21.25;;;22.40;99.90;;;;;;5132485;27;20509;-74
2023/07/09 04:17:29;;;;;;;30.30;22.63;;;22.30;99.90;;;;;;5132272;27;20027;-74
2023/07/09 04:19:55;;;;;;;30.40;21.88;;;22.30;99.90;;;;;;5132461;27;20022;-74
2023/07/09 04:22:21;;;;;;;30.38;21.80;;;22.30;99.90;;;;;;5132050;27;20049;-74
2023/07/09 04:24:46;;;;;;;31.38;23.27;;;22.30;99.90;;;;;;5132640;27;20011;-74
2023/07/09 04:27:13;;;;;;;36.30;23.50;;;22.30;99.90;;;;;;5132155;27;20402;-74
2023/07/09 04:29:40;;;;;;;31.55;23.80;;;22.30;99.90;;;;;;5132666;27;20507;-74
2023/07/09 04:32:08;;;;;;;34.75;23.27;;;22.30;99.90;;;;;;5131818;27;20051;-74
2023/07/09 04:34:33;;;;;;;33.70;22.85;;;22.30;99.90;;;;;;5123033;27;20015;-74
2023/07/09 04:36:59;;;;;;;37.78;24.05;;;22.40;99.90;;;;;;5131854;27;20019;-74
2023/07/09 04:39:25;;;;;;;29.92;22.05;;;22.40;99.90;;;;;;5111808;27;20023;-74
2023/07/09 04:41:50;;;;;;;30.60;22.08;;;22.40;99.90;;;;;;5131443;27;20022;-74
2023/07/09 04:44:16;;;;;;;28.52;21.52;;;22.40;99.90;;;;;;5131990;27;20023;-74
2023/07/09 04:46:42;;;;;;;38.10;24.33;;;22.40;99.90;;;;;;5131846;27;20051;-74
2023/07/09 04:49:08;;;;;;;31.40;22.00;;;22.50;99.90;;;;;;5132014;27;20498;-74
2023/07/09 04:51:33;;;;;;;29.73;22.15;;;22.50;99.90;;;;;;5131775;27;20054;-74
2023/07/09 04:54:03;;;;;;;37.17;22.83;;;22.50;99.90;;;;;;5131541;27;20011;-74
2023/07/09 04:56:29;;;;;;;33.00;22.23;;;22.60;99.90;;;;;;5131206;27;20114;-74
2023/07/09 04:58:55;;;;;;;30.15;21.67;;;22.60;99.90;;;;;;5131337;27;20016;-74
2023/07/09 05:01:21;;;;;;;30.50;22.35;;;22.70;99.90;;;;;;5117146;27;20031;-74
2023/07/09 05:03:46;;;;;;;32.55;22.67;;;22.70;99.90;;;;;;5129715;27;20476;-74
2023/07/09 05:06:13;;;;;;;31.98;22.65;;;22.70;99.90;;;;;;5131111;27;20058;-74
2023/07/09 05:08:38;;;;;;;31.88;22.85;;;22.80;99.90;;;;;;5130835;27;20027;-75
2023/07/09 05:11:04;;;;;;;38.55;24.67;;;22.80;99.90;;;;;;5106560;27;20080;-75
2023/07/09 05:13:29;;;;;;;35.45;26.23;;;22.80;99.90;;;;;;5131357;27;20539;-75
2023/07/09 05:15:55;;;;;;;43.10;28.23;;;22.80;99.90;;;;;;5131283;27;20031;-75
2023/07/09 05:18:21;;;;;;;39.80;28.13;;;22.90;99.90;;;;;;5131338;27;20388;-75
2023/07/09 05:20:47;;;;;;;38.92;28.73;;;22.90;99.90;;;;;;5131286;27;20559;-75
2023/07/09 05:23:13;;;;;;;44.03;32.38;;;22.90;99.90;;;;;;5112868;27;20026;-75
2023/07/09 05:25:39;;;;;;;47.45;33.33;;;23.00;99.90;;;;;;5131568;27;20067;-75
2023/07/09 05:28:05;;;;;;;50.05;35.67;;;23.00;99.90;;;;;;5131161;27;20072;-74
2023/07/09 05:30:31;;;;;;;48.67;33.50;;;23.00;99.90;;;;;;5130705;27;20024;-74
2023/07/09 05:32:57;;;;;;;52.13;34.95;;;23.10;99.90;;;;;;5131003;27;20014;-75
2023/07/09 05:35:25;;;;;;;49.22;35.30;;;23.10;99.90;;;;;;5108392;28;20488;-74
2023/07/09 05:37:52;;;;;;;47.22;33.70;;;23.10;99.90;;;;;;5102441;28;20522;-75
2023/07/09 05:40:17;;;;;;;51.35;34.08;;;23.20;99.90;;;;;;5130447;27;20030;-75
2023/07/09 05:42:43;;;;;;;45.00;32.15;;;23.30;99.90;;;;;;5129192;27;20395;-75
2023/07/09 05:45:09;;;;;;;46.25;31.95;;;23.30;99.90;;;;;;5129610;27;20109;-75
2023/07/09 05:47:35;;;;;;;45.45;31.25;;;23.40;99.90;;;;;;5129816;27;20721;-74
2023/07/09 05:50:00;;;;;;;41.38;30.73;;;23.50;99.90;;;;;;5111788;27;20020;-75
2023/07/09 05:52:29;;;;;;;42.17;28.63;;;23.50;99.90;;;;;;5130147;28;20099;-75
2023/07/09 05:54:55;;;;;;;38.45;28.65;;;23.60;99.90;;;;;;5111862;28;20062;-75
2023/07/09 05:57:21;;;;;;;35.65;27.77;;;23.70;99.90;;;;;;5127529;28;20406;-75
2023/07/09 05:59:47;;;;;;;37.55;26.98;;;23.70;99.90;;;;;;5129055;28;20020;-75
2023/07/09 06:02:14;;;;;;;38.17;28.50;;;23.80;99.90;;;;;;5109845;28;20026;-75
2023/07/09 06:04:41;;;;;;;39.55;27.88;;;23.90;99.90;;;;;;5109520;28;20382;-74
2023/07/09 06:07:07;;;;;;;40.42;26.80;;;23.90;99.90;;;;;;5118756;28;20127;-74
2023/07/09 06:09:32;;;;;;;40.42;29.30;;;23.90;99.90;;;;;;5130575;28;20507;-74
2023/07/09 06:11:58;;;;;;;40.67;30.77;;;24.00;99.90;;;;;;5131233;28;20015;-78
2023/07/09 06:14:25;;;;;;;38.58;29.35;;;24.00;99.90;;;;;;5131555;28;20019;-78
2023/07/09 06:16:50;;;;;;;37.15;27.23;;;24.00;99.90;;;;;;5118968;28;20031;-77
2023/07/09 06:19:16;;;;;;;41.15;28.05;;;24.00;99.90;;;;;;5117423;28;20475;-77
2023/07/09 06:21:41;;;;;;;38.67;25.88;;;24.00;99.90;;;;;;5121283;28;20031;-77
2023/07/09 06:24:08;;;;;;;37.55;26.23;;;24.00;99.90;;;;;;5118096;28;20043;-77
2023/07/09 06:26:34;;;;;;;31.42;23.55;;;24.10;99.90;;;;;;5105754;28;20055;-77
2023/07/09 06:29:00;;;;;;;36.50;23.42;;;24.10;99.90;;;;;;5131198;28;20091;-77
2023/07/09 06:31:25;;;;;;;30.77;20.88;;;24.20;99.90;;;;;;5118598;28;20020;-77
2023/07/09 06:33:51;;;;;;;24.33;17.08;;;24.20;99.90;;;;;;5132855;28;20019;-77
2023/07/09 06:36:18;;;;;;;20.02;14.15;;;24.20;99.90;;;;;;5126911;28;20110;-71
2023/07/09 06:38:44;;;;;;;19.05;11.80;;;24.30;99.90;;;;;;5128672;28;20027;-71
2023/07/09 06:41:11;;;;;;;18.42;11.25;;;24.30;99.90;;;;;;5126532;28;20031;-71
2023/07/09 06:43:39;;;;;;;21.67;11.70;;;24.30;99.90;;;;;;5130522;28;20046;-71
2023/07/09 06:46:08;;;;;;;21.38;11.73;;;24.30;99.90;;;;;;5130765;28;20031;-71
2023/07/09 06:48:34;;;;;;;16.48;11.35;;;24.30;99.90;;;;;;5129810;28;20490;-71
2023/07/09 06:51:00;;;;;;;17.88;12.80;;;24.30;99.90;;;;;;5132330;27;20035;-71
2023/07/09 06:53:27;;;;;;;22.40;13.55;;;24.30;99.90;;;;;;5134187;27;20016;-71
2023/07/09 06:55:55;;;;;;;20.30;13.07;;;24.30;99.90;;;;;;5114859;27;20535;-71
2023/07/09 06:58:21;;;;;;;18.15;13.00;;;24.30;99.90;;;;;;5132773;27;20008;-71
2023/07/09 07:00:49;;;;;;;22.63;13.00;;;24.30;99.90;;;;;;5133630;27;20031;-71
2023/07/09 07:03:15;;;;;;;22.70;13.70;;;24.30;99.90;;;;;;5134003;27;20038;-71
2023/07/09 07:05:50;;;;;;;17.67;12.80;;;24.30;99.90;;;;;;5133805;27;20045;-71
2023/07/09 07:08:17;;;;;;;25.05;14.18;;;24.30;99.90;;;;;;5133890;27;20475;-71
2023/07/09 07:10:44;;;;;;;20.35;13.15;;;24.40;99.90;;;;;;5115137;27;20379;-71
2023/07/09 07:13:09;;;;;;;15.90;11.77;;;24.50;99.90;;;;;;5133506;27;20498;-71
2023/07/09 07:15:38;;;;;;;16.23;10.20;;;24.50;99.90;;;;;;5133490;27;20055;-71
2023/07/09 07:18:03;;;;;;;24.52;10.60;;;24.60;99.90;;;;;;5134150;27;20050;-71
2023/07/09 07:20:30;;;;;;;19.20;10.20;;;24.60;99.90;;;;;;5133371;27;20100;-71
2023/07/09 07:22:56;;;;;;;18.00;11.63;;;24.70;99.90;;;;;;5131207;27;20050;-71
2023/07/09 07:25:22;;;;;;;18.92;10.98;;;24.80;99.90;;;;;;5133770;27;20106;-71
2023/07/09 07:27:48;;;;;;;24.23;11.65;;;24.80;99.90;;;;;;5133456;27;20397;-71
2023/07/09 07:30:14;;;;;;;15.82;10.57;;;24.90;99.90;;;;;;5133429;27;20394;-71
2023/07/09 07:32:46;;;;;;;20.25;11.32;;;24.80;99.90;;;;;;5131371;27;20076;-71
2023/07/09 07:35:13;;;;;;;16.77;11.10;;;24.90;99.90;;;;;;5122608;27;20030;-71
2023/07/09 07:37:41;;;;;;;18.33;11.13;;;24.90;99.90;;;;;;5132529;27;20232;-71
2023/07/09 07:40:08;;;;;;;20.05;11.13;;;24.90;99.90;;;;;;5134198;27;20058;-71
2023/07/09 07:42:34;;;;;;;19.30;11.13;;;24.90;99.90;;;;;;5133555;27;20107;-71
2023/07/09 07:45:00;;;;;;;15.23;10.68;;;25.00;99.90;;;;;;5132717;27;20475;-71
2023/07/09 07:47:27;;;;;;;19.92;10.48;;;25.00;99.90;;;;;;5132553;27;20102;-71
2023/07/09 07:49:53;;;;;;;15.93;9.90;;;25.00;99.90;;;;;;5132587;27;20084;-71
2023/07/09 07:52:19;;;;;;;15.18;10.23;;;25.10;99.90;;;;;;5125998;27;20046;-71
2023/07/09 07:54:45;;;;;;;18.27;10.57;;;25.20;99.90;;;;;;5132931;27;20459;-71
2023/07/09 07:57:11;;;;;;;15.43;9.85;;;25.30;99.90;;;;;;5132757;27;20057;-71
2023/07/09 07:59:37;;;;;;;15.45;9.75;;;25.40;99.90;;;;;;5132026;27;20026;-71
2023/07/09 08:02:05;;;;;;;18.95;9.18;;;25.60;99.90;;;;;;5131340;27;20027;-71
2023/07/09 08:04:31;;;;;;;18.33;9.25;;;25.70;99.90;;;;;;5132434;27;20068;-72
2023/07/09 08:06:58;;;;;;;14.40;8.90;;;25.80;99.90;;;;;;5132900;27;20023;-70
2023/07/09 08:09:24;;;;;;;13.75;7.95;;;25.90;99.90;;;;;;5124112;27;20034;-70
2023/07/09 08:11:49;;;;;;;11.57;7.65;;;26.00;99.90;;;;;;5128233;27;20020;-71
2023/07/09 08:14:15;;;;;;;18.17;7.78;;;26.10;99.90;;;;;;5127331;27;20046;-70
2023/07/09 08:16:41;;;;;;;10.15;7.20;;;26.20;99.90;;;;;;5123901;27;20020;-70
2023/07/09 08:19:06;;;;;;;12.52;7.13;;;26.30;99.90;;;;;;5132294;27;20479;-70
2023/07/09 08:21:32;;;;;;;12.77;6.63;;;26.30;99.90;;;;;;5132273;27;20686;-70
2023/07/09 08:23:58;;;;;;;10.60;6.53;;;26.30;99.90;;;;;;5132443;27;20420;-71
2023/07/09 08:26:26;;;;;;;12.60;5.90;;;26.30;99.90;;;;;;5132397;27;20031;-71
2023/07/09 08:28:52;;;;;;;9.70;5.47;;;26.30;99.90;;;;;;5132363;27;20023;-71
2023/07/09 08:31:17;;;;;;;9.88;5.85;;;26.40;99.90;;;;;;5132224;27;20090;-71
2023/07/09 08:33:43;;;;;;;9.80;5.38;;;26.50;99.90;;;;;;5128624;27;20060;-70
2023/07/09 08:36:09;;;;;;;9.55;5.30;;;26.60;99.90;;;;;;5131524;27;20034;-71
2023/07/09 08:38:35;;;;;;;7.80;5.10;;;26.70;99.90;;;;;;5128799;27;20027;-71
2023/07/09 08:41:08;;;;;;;9.25;5.40;;;26.80;99.90;;;;;;5123526;27;20072;-71
2023/07/09 08:43:56;;;;;;;8.75;5.68;;;26.90;99.90;;;;;;5110833;27;20035;-71
2023/07/09 08:46:49;;;;;;;9.88;5.10;;;27.00;99.90;;;;;;5130271;27;20424;-71
2023/07/09 08:49:21;;;;;;;10.82;4.85;;;27.00;99.90;;;;;;5128273;27;20106;-71
2023/07/09 08:51:47;;;;;;;6.95;4.60;;;27.00;99.90;;;;;;5131639;27;20533;-71
2023/07/09 08:54:27;;;;;;;7.63;4.60;;;27.00;99.90;;;;;;5131867;27;20028;-71
2023/07/09 08:56:53;;;;;;;7.10;4.90;;;27.10;99.90;;;;;;5131387;27;20019;-71
2023/07/09 08:59:20;;;;;;;8.73;4.32;;;27.10;99.90;;;;;;5131852;27;20028;-71
2023/07/09 09:01:57;;;;;;;10.00;4.45;;;27.10;99.90;;;;;;5130752;27;20012;-71
2023/07/09 09:04:34;;;;;;;7.75;4.20;;;27.20;99.90;;;;;;5131686;27;20062;-71
2023/07/09 09:07:40;;;;;;;7.65;4.07;;;27.20;99.90;;;;;;5127748;27;20380;-71
2023/07/09 09:10:14;;;;;;;6.05;3.65;;;27.30;99.90;;;;;;5003336;28;20022;-70
2023/07/09 09:13:09;;;;;;;7.25;4.00;;;27.30;99.90;;;;;;4990557;28;20033;-70
2023/07/09 09:15:37;;;;;;;8.43;3.60;;;27.40;99.90;;;;;;5094920;27;20035;-70
2023/07/09 09:18:20;;;;;;;5.05;3.50;;;27.50;99.90;;;;;;5131342;27;20110;-70
2023/07/09 09:21:18;;;;;;;5.03;3.70;;;27.60;99.90;;;;;;5130768;27;20070;-70
2023/07/09 09:23:54;;;;;;;6.00;3.40;;;27.60;99.90;;;;;;5122191;27;20047;-71
2023/07/09 09:26:24;;;;;;;8.60;3.70;;;27.70;99.90;;;;;;5120966;27;20566;-70
2023/07/09 09:28:50;;;;;;;6.47;3.28;;;27.80;99.90;;;;;;5129510;27;20060;-70
2023/07/09 09:31:17;;;;;;;6.30;3.13;;;27.80;99.90;;;;;;5129502;27;20040;-70
2023/07/09 09:33:46;;;;;;;5.05;2.83;;;27.90;99.90;;;;;;5102053;27;20026;-71
2023/07/09 09:36:16;;;;;;;5.25;2.92;;;27.80;99.50;;;;;;5129138;27;20075;-70
2023/07/09 09:38:42;;;;;;;5.90;2.70;;;27.90;99.10;;;;;;5129668;27;20051;-71
2023/07/09 09:41:30;;;;;;;6.63;2.67;;;27.90;98.80;;;;;;5131202;27;20023;-70
2023/07/09 09:43:57;;;;;;;5.97;2.70;;;27.90;98.00;;;;;;5123982;27;20104;-70
2023/07/09 09:46:27;;;;;;;5.40;2.85;;;27.80;97.90;;;;;;5131532;27;20098;-70
2023/07/09 09:48:59;;;;;;;5.32;2.90;;;27.90;97.80;;;;;;5130784;27;20098;-70
2023/07/09 09:51:26;;;;;;;5.60;2.70;;;28.00;97.40;;;;;;5129664;27;20043;-71
2023/07/09 09:54:00;;;;;;;4.10;3.20;;;28.10;97.50;;;;;;5131092;28;20510;-71
2023/07/09 09:56:28;;;;;;;5.47;3.22;;;28.20;97.20;;;;;;5130648;28;20024;-71
2023/07/09 09:58:56;;;;;;;4.05;2.92;;;28.30;96.50;;;;;;5111078;28;20046;-71
2023/07/09 10:01:29;;;;;;;5.50;3.17;;;28.20;96.40;;;;;;5130664;28;20045;-71
2023/07/09 10:03:56;;;;;;;6.03;3.30;;;28.30;96.00;;;;;;5130541;28;20024;-71
2023/07/09 10:06:34;;;;;;;7.28;2.88;;;28.20;95.70;;;;;;5130902;28;20384;-71
2023/07/09 10:09:13;;;;;;;5.28;2.90;;;28.30;95.90;;;;;;5126102;28;20027;-71
2023/07/09 10:11:45;;;;;;;6.65;3.17;;;28.40;95.40;;;;;;5130528;28;20459;-71
2023/07/09 10:14:35;;;;;;;5.47;3.17;;;28.60;95.30;;;;;;5130713;28;20072;-71
2023/07/09 10:17:29;;;;;;;7.50;2.88;;;28.70;94.90;;;;;;5118720;28;20039;-71
2023/07/09 10:20:26;;;;;;;6.55;3.10;;;28.90;94.60;;;;;;5112108;28;20074;-71
2023/07/09 10:22:54;;;;;;;4.63;3.05;;;29.00;93.90;;;;;;5130618;28;20098;-71
2023/07/09 10:26:02;;;;;;;6.05;2.88;;;28.90;94.10;;;;;;5125784;27;20035;-71
2023/07/09 10:28:37;;;;;;;8.43;3.30;;;28.90;93.90;;;;;;5131355;27;20024;-70
2023/07/09 10:31:23;;;;;;;5.20;2.90;;;28.90;94.20;;;;;;5135144;27;20426;-70
2023/07/09 10:34:27;;;;;;;5.00;3.25;;;28.80;94.30;;;;;;5135309;27;20038;-70
2023/07/09 10:37:23;;;;;;;5.07;3.30;;;28.90;94.40;;;;;;5124561;27;20493;-70
2023/07/09 10:39:53;;;;;;;7.78;3.72;;;29.10;94.30;;;;;;5127890;27;20024;-70
2023/07/09 10:42:34;;;;;;;7.65;3.65;;;29.20;93.80;;;;;;5135805;27;20016;-73
2023/07/09 10:45:10;;;;;;;5.15;3.28;;;29.30;93.80;;;;;;5135411;27;20690;-69
2023/07/09 10:47:47;;;;;;;6.53;3.83;;;29.50;93.50;;;;;;5134272;27;20080;-69
2023/07/09 10:50:21;;;;;;;4.63;3.40;;;29.50;92.60;;;;;;5128185;27;20024;-69
2023/07/09 10:52:51;;;;;;;10.88;3.70;;;29.50;92.90;;;;;;5134122;27;20487;-69
2023/07/09 10:55:23;;;;;;;6.25;4.07;;;29.70;92.90;;;;;;5127731;27;20027;-69
2023/07/09 10:58:05;;;;;;;8.20;4.00;;;29.70;92.30;;;;;;5134098;27;20028;-69
2023/07/09 11:00:37;;;;;;;7.20;3.95;;;29.70;92.50;;;;;;5120957;27;20386;-69
2023/07/09 11:03:19;;;;;;;7.60;4.00;;;29.80;92.30;;;;;;5133874;27;20521;-69
2023/07/09 11:05:46;;;;;;;7.22;4.65;;;29.90;92.00;;;;;;5134102;27;20022;-69
2023/07/09 11:08:16;;;;;;;7.65;3.97;;;30.10;91.60;;;;;;5133586;27;20011;-69
2023/07/09 11:11:10;;;;;;;7.55;4.60;;;30.10;91.00;;;;;;5134057;27;20019;-69
2023/07/09 11:13:45;;;;;;;13.00;5.05;;;30.00;90.70;;;;;;5091638;27;20460;-69
2023/07/09 11:16:17;;;;;;;;;;;29.90;91.20;;;;;;5119686;27;20471;-69
2023/07/09 11:18:58;;;;;;;8.98;5.25;;;30.00;90.70;;;;;;5131679;27;19975;-73
2023/07/09 11:21:23;;;;;;;8.52;4.40;;;30.00;90.70;;;;;;5126185;27;20027;-71
2023/07/09 11:23:53;;;;;;;7.30;4.47;;;30.10;90.70;;;;;;5132162;27;20015;-71
2023/07/09 11:26:36;;;;;;;8.07;4.10;;;30.20;90.40;;;;;;5131646;27;20114;-71
2023/07/09 11:29:02;;;;;;;7.97;3.90;;;30.20;90.50;;;;;;5129065;27;20024;-71
2023/07/09 11:31:40;;;;;;;9.07;4.10;;;30.30;90.20;;;;;;5133280;27;20497;-71
2023/07/09 11:34:18;;;;;;;4.28;3.28;;;30.40;90.20;;;;;;5133077;27;20391;-72
2023/07/09 11:36:48;;;;;;;6.18;3.20;;;30.60;89.10;;;;;;5132699;27;20110;-71
2023/07/09 11:39:27;;;;;;;6.22;2.90;;;30.60;88.10;;;;;;5131589;27;20030;-71
2023/07/09 11:41:53;;;;;;;8.30;3.20;;;30.50;86.80;;;;;;5133400;27;20468;-71
2023/07/09 11:44:19;;;;;;;5.65;3.30;;;30.20;87.70;;;;;;5126772;27;20069;-71
2023/07/09 11:47:03;;;;;;;5.38;2.97;;;30.20;88.10;;;;;;5133076;27;20093;-71
2023/07/09 11:49:43;;;;;;;7.82;3.33;;;30.30;87.90;;;;;;5127009;27;20337;-71
2023/07/09 11:52:10;;;;;;;8.23;3.17;;;30.20;87.90;;;;;;5131817;27;20084;-70
2023/07/09 11:54:37;;;;;;;6.28;3.70;;;30.10;87.60;;;;;;5130738;27;20030;-69
2023/07/09 11:57:08;;;;;;;9.48;3.10;;;29.90;88.10;;;;;;5132256;27;20030;-69
2023/07/09 11:59:39;;;;;;;5.28;3.20;;;29.60;88.70;;;;;;5133039;27;20432;-69
2023/07/09 12:02:05;;;;;;;6.93;3.35;;;29.40;90.00;;;;;;5133341;27;20019;-69
2023/07/09 12:04:34;;;;;;;6.93;3.58;;;29.30;90.30;;;;;;5132853;27;20068;-69
2023/07/09 12:07:02;;;;;;;5.57;3.20;;;29.00;90.60;;;;;;5124662;27;20039;-69
2023/07/09 12:09:39;;;;;;;5.72;3.38;;;28.80;90.80;;;;;;5132724;27;20020;-69
2023/07/09 12:12:20;;;;;;;9.18;3.60;;;28.60;91.20;;;;;;5126822;27;20111;-71
2023/07/09 12:14:46;;;;;;;7.75;3.70;;;28.40;92.20;;;;;;5132836;27;20495;-71
2023/07/09 12:17:12;;;;;;;9.77;4.00;;;28.30;92.90;;;;;;5132633;27;20038;-70
2023/07/09 12:19:39;;;;;;;8.02;4.25;;;28.20;93.40;;;;;;5132858;27;20079;-70
2023/07/09 12:22:11;;;;;;;9.95;4.80;;;28.00;94.40;;;;;;5133079;27;20337;-71
2023/07/09 12:24:41;;;;;;;9.82;4.90;;;27.70;94.90;;;;;;5132439;27;20289;-71
2023/07/09 12:27:37;;;;;;;13.70;5.30;;;27.40;95.40;;;;;;5132700;27;20020;-71
2023/07/09 12:30:02;;;;;;;;;;;27.10;96.20;;;;;;5106420;27;20538;-71
2023/07/09 12:32:28;;;;;;;17.27;5.28;;;26.70;97.30;;;;;;5132405;27;19937;-70
2023/07/09 12:34:55;;;;;;;15.07;5.63;;;26.30;98.30;;;;;;5132091;27;20372;-70
2023/07/09 12:37:23;;;;;;;14.85;5.60;;;26.00;99.50;;;;;;5132681;27;20023;-70
2023/07/09 12:39:51;;;;;;;17.52;5.10;;;25.80;99.90;;;;;;5131915;27;20031;-70
2023/07/09 12:42:32;;;;;;;16.42;5.05;;;25.70;99.90;;;;;;5132171;27;20506;-70
2023/07/09 12:44:58;;;;;;;16.58;5.50;;;25.60;99.90;;;;;;5131764;27;20484;-73